首页
METAR-TAF:

METAR-TAF

机场 :

奥斯陆加勒穆恩机场

奥斯陆, 挪威

纬度: 60-12N, 经度: 011-05E, 海拔: 208米

当前天气观测

该预报发布于28分钟前的18:50 UTC
风速12节,风向
温度 7°C
湿度 53%
气压 1007 hPa
能见度10公里或以上
1500米以下无云,无积雨云

METAR: ENGM 221850Z 19012KT CAVOK 07/M02 Q1007 NOSIG

时间: 21:18 (19:18 UTC)

预报

预报有效从22日的 18点(UTC)到 23日的 18点(UTC)
风速12节,风向
能见度10公里或以上
1500米以下无云,无积雨云
成为
从 22日的 21点(UTC)到 22日的 23点(UTC)
多云层高于800英尺
短暂存在
从 22日的 23点(UTC)到 23日的 03点(UTC)
能見度: 4000
多云层高于400英尺
毛毛雨, 轻雾
成为
从 23日的 03点(UTC)到 23日的 06点(UTC)
风速3节,风向多变
少量云层高于2500英尺
成为
从 23日的 06点(UTC)到 23日的 08点(UTC)
风速10节,风向西转西北
短暂存在
从 23日的 09点(UTC)到 23日的 18点(UTC)
风速15节,风向北转西北,有时为25节阵风

TAF: ENGM 2218/2318 19012KT CAVOK BECMG 2221/2223 BKN008 TEMPO 2223/2303 4000 DZ BR BKN004 BECMG 2303/2306 VRB03KT FEW025 BECMG 2306/2308 30010KT TEMPO 2309/2318 34015G25KT

超过4000个机场的气象观测和天气预报(METAR&TAF报告)。

可查询的气象台以黄色和红色小点在地图上表示。

将鼠标移到小点上方,可查看气象台名称。

然后点击查看天气观测和预报。

如需切换地图:点击带黑十字的绿色按钮放大地图;点击带横线的绿色按钮缩小地图;或者点击绿色箭头查看邻近地区的地图。


METAR-TAF: